createdAt,value
2019-05-25T00:00:00.733Z,14.27
2019-05-25T00:02:08.090Z,14.27
2019-05-25T00:04:14.589Z,14.27
2019-05-25T00:06:21.213Z,14.26
2019-05-25T00:08:27.700Z,14.25
2019-05-25T00:10:34.239Z,14.21
2019-05-25T00:12:40.646Z,14.19
2019-05-25T00:14:47.038Z,14.18
2019-05-25T00:16:53.426Z,14.15
2019-05-25T00:18:59.886Z,14.13
2019-05-25T00:21:06.351Z,14.09
2019-05-25T00:23:12.778Z,14.07
2019-05-25T00:25:19.264Z,14.05
2019-05-25T00:27:25.716Z,14.05
2019-05-25T00:29:32.217Z,14.07
2019-05-25T00:31:38.790Z,14.05
2019-05-25T00:33:46.424Z,13.99
2019-05-25T00:35:53.193Z,13.99
2019-05-25T00:37:59.719Z,13.99
2019-05-25T00:40:08.627Z,14.00
2019-05-25T00:42:15.003Z,14.01
2019-05-25T00:44:21.435Z,13.99
2019-05-25T00:46:27.939Z,13.98
2019-05-25T00:48:34.431Z,14.00
2019-05-25T00:50:40.863Z,14.03
2019-05-25T00:52:47.564Z,14.00
2019-05-25T00:54:53.934Z,13.97
2019-05-25T00:57:00.528Z,13.96
2019-05-25T00:59:07.022Z,13.96
2019-05-25T01:01:13.421Z,13.96
2019-05-25T01:03:19.941Z,13.96
2019-05-25T01:05:26.383Z,13.94
2019-05-25T01:07:32.767Z,13.93
2019-05-25T01:09:39.262Z,13.92
2019-05-25T01:11:45.688Z,13.90
2019-05-25T01:13:52.119Z,13.87
2019-05-25T01:15:58.721Z,13.86
2019-05-25T01:18:05.309Z,13.86
2019-05-25T01:20:13.977Z,13.85
2019-05-25T01:22:20.465Z,13.85
2019-05-25T01:24:42.950Z,13.83
2019-05-25T01:26:35.177Z,13.82
2019-05-25T01:28:41.607Z,13.79
2019-05-25T01:30:48.018Z,13.79
2019-05-25T01:32:54.469Z,13.77
2019-05-25T01:35:00.939Z,13.75
2019-05-25T01:37:07.466Z,13.71
2019-05-25T01:39:13.961Z,13.66
2019-05-25T01:41:20.504Z,13.63
2019-05-25T01:43:26.932Z,13.58
2019-05-25T01:45:33.407Z,13.53
2019-05-25T01:47:39.839Z,13.47
2019-05-25T01:49:46.272Z,13.45
2019-05-25T01:51:52.688Z,13.41
2019-05-25T01:54:01.073Z,13.34
2019-05-25T01:56:07.561Z,13.28
2019-05-25T01:58:14.014Z,13.23
2019-05-25T02:00:22.539Z,13.15
2019-05-25T02:02:28.971Z,13.05
2019-05-25T02:04:35.338Z,12.94
2019-05-25T02:06:41.746Z,12.81
2019-05-25T02:08:48.240Z,12.74
2019-05-25T02:10:54.654Z,12.66
2019-05-25T02:13:01.068Z,12.59
2019-05-25T02:15:11.417Z,12.57
2019-05-25T02:17:17.800Z,12.51
2019-05-25T02:19:24.230Z,12.47
2019-05-25T02:21:30.732Z,12.44
2019-05-25T02:23:37.169Z,12.41
2019-05-25T02:25:45.504Z,12.41
2019-05-25T02:27:54.193Z,12.39
2019-05-25T02:30:00.613Z,12.39
2019-05-25T02:32:08.328Z,12.39
2019-05-25T02:34:14.745Z,12.38
2019-05-25T02:36:21.163Z,12.36
2019-05-25T02:38:28.000Z,12.35
2019-05-25T02:40:35.785Z,12.35
2019-05-25T02:42:42.194Z,12.34
2019-05-25T02:44:48.714Z,12.34
2019-05-25T02:46:55.145Z,12.36
2019-05-25T02:49:01.682Z,12.40
2019-05-25T02:51:08.184Z,12.44
2019-05-25T02:53:14.609Z,12.51
2019-05-25T02:55:33.773Z,12.58
2019-05-25T02:57:30.773Z,12.66
2019-05-25T02:59:37.211Z,12.77
2019-05-25T03:01:43.676Z,12.85
2019-05-25T03:03:50.547Z,12.92
2019-05-25T03:05:58.519Z,12.97
2019-05-25T03:08:05.359Z,13.01
2019-05-25T03:10:13.039Z,13.07
2019-05-25T03:12:20.541Z,13.14
2019-05-25T03:14:27.035Z,13.22
2019-05-25T03:16:33.558Z,13.28
2019-05-25T03:18:40.006Z,13.34
2019-05-25T03:20:48.810Z,13.40
2019-05-25T03:22:55.279Z,13.46
2019-05-25T03:25:01.765Z,13.54
2019-05-25T03:27:09.243Z,13.63
2019-05-25T03:29:15.665Z,13.75
2019-05-25T03:31:22.081Z,13.82
2019-05-25T03:33:29.592Z,13.86
2019-05-25T03:35:35.986Z,13.93
2019-05-25T03:37:42.384Z,14.03
2019-05-25T03:39:48.813Z,14.10
2019-05-25T03:41:55.224Z,14.11
2019-05-25T03:44:01.675Z,14.14
2019-05-25T03:46:08.051Z,14.16
2019-05-25T03:48:14.648Z,14.21
2019-05-25T03:50:21.227Z,14.24
2019-05-25T03:52:27.660Z,14.29
2019-05-25T03:54:34.119Z,14.31
2019-05-25T03:56:40.691Z,14.37
2019-05-25T03:58:47.112Z,14.45
2019-05-25T04:00:53.589Z,14.53
2019-05-25T04:02:59.984Z,14.61
2019-05-25T04:05:07.817Z,14.86
2019-05-25T04:07:14.224Z,15.40
2019-05-25T04:09:20.718Z,16.19
2019-05-25T04:11:27.168Z,17.04
2019-05-25T04:13:33.611Z,17.86
2019-05-25T04:15:39.989Z,18.83
2019-05-25T04:17:46.520Z,19.87
2019-05-25T04:19:52.967Z,20.71
2019-05-25T04:21:59.388Z,21.59
2019-05-25T04:24:06.538Z,22.42
2019-05-25T04:26:22.181Z,23.09
2019-05-25T04:28:21.078Z,23.40
2019-05-25T04:30:28.845Z,23.85
2019-05-25T04:32:35.309Z,24.72
2019-05-25T04:34:41.750Z,25.29
2019-05-25T04:36:48.177Z,26.01
2019-05-25T04:38:55.671Z,26.12
2019-05-25T04:41:02.081Z,26.36
2019-05-25T04:43:08.513Z,26.83
2019-05-25T04:45:16.557Z,26.51
2019-05-25T04:47:26.898Z,26.55
2019-05-25T04:49:31.301Z,26.59
2019-05-25T04:51:37.700Z,27.64
2019-05-25T04:53:44.404Z,27.59
2019-05-25T04:55:51.825Z,28.09
2019-05-25T04:57:59.766Z,28.02
2019-05-25T05:00:10.577Z,28.91
2019-05-25T05:02:17.014Z,29.11
2019-05-25T05:04:24.273Z,30.01
2019-05-25T05:06:30.723Z,30.64
2019-05-25T05:08:37.143Z,31.17
2019-05-25T05:10:44.505Z,31.72
2019-05-25T05:12:53.475Z,32.19
2019-05-25T05:14:59.934Z,32.46
2019-05-25T05:17:06.551Z,32.15
2019-05-25T05:19:13.041Z,32.55
2019-05-25T05:21:19.498Z,33.10
2019-05-25T05:23:26.870Z,33.22
2019-05-25T05:25:34.318Z,33.79
2019-05-25T05:27:40.719Z,33.78
2019-05-25T05:29:47.155Z,33.21
2019-05-25T05:31:53.579Z,32.93
2019-05-25T05:34:00.084Z,33.03
2019-05-25T05:36:07.853Z,33.51
2019-05-25T05:38:16.197Z,33.69
2019-05-25T05:40:25.675Z,34.21
2019-05-25T05:42:35.213Z,34.56
2019-05-25T05:44:45.773Z,34.72
2019-05-25T05:46:55.797Z,34.49
2019-05-25T05:49:03.828Z,34.47
2019-05-25T05:51:14.156Z,34.74
2019-05-25T05:53:23.358Z,34.30
2019-05-25T05:55:33.585Z,34.02
2019-05-25T05:57:40.029Z,33.85
2019-05-25T05:59:46.512Z,33.95
2019-05-25T06:01:54.493Z,34.45
2019-05-25T06:04:02.088Z,33.96
2019-05-25T06:06:08.739Z,34.01
2019-05-25T06:08:15.217Z,34.97
2019-05-25T06:10:23.067Z,35.59
2019-05-25T06:12:29.511Z,35.88
2019-05-25T06:14:35.905Z,36.04
2019-05-25T06:16:42.400Z,35.87
2019-05-25T06:18:48.911Z,35.95
2019-05-25T06:20:55.322Z,36.38
2019-05-25T06:23:01.809Z,36.50
2019-05-25T06:25:11.174Z,36.90
2019-05-25T06:27:27.041Z,36.19
2019-05-25T06:29:26.849Z,36.17
2019-05-25T06:31:33.243Z,36.37
2019-05-25T06:33:39.708Z,36.75
2019-05-25T06:35:48.167Z,37.08
2019-05-25T06:37:54.590Z,36.61
2019-05-25T06:40:01.830Z,36.30
2019-05-25T06:42:10.318Z,36.13
2019-05-25T06:44:18.114Z,36.00
2019-05-25T06:46:25.442Z,36.13
2019-05-25T06:48:31.986Z,37.31
2019-05-25T06:50:38.544Z,38.05
2019-05-25T06:52:44.980Z,38.60
2019-05-25T06:54:51.394Z,38.38
2019-05-25T06:56:57.845Z,37.97
2019-05-25T06:59:04.736Z,38.24
2019-05-25T07:01:11.326Z,38.49
2019-05-25T07:03:17.693Z,39.27
2019-05-25T07:05:24.140Z,39.91
2019-05-25T07:07:30.600Z,40.25
2019-05-25T07:09:37.676Z,40.59
2019-05-25T07:11:44.126Z,40.42
2019-05-25T07:13:50.610Z,39.73
2019-05-25T07:15:57.036Z,39.68
2019-05-25T07:18:03.680Z,38.87
2019-05-25T07:20:11.653Z,39.05
2019-05-25T07:22:18.023Z,38.58
2019-05-25T07:24:26.083Z,38.98
2019-05-25T07:26:32.488Z,38.24
2019-05-25T07:28:38.942Z,38.14
2019-05-25T07:30:46.711Z,38.18
2019-05-25T07:32:53.450Z,38.79
2019-05-25T07:34:59.800Z,39.35
2019-05-25T07:37:06.336Z,40.06
2019-05-25T07:39:12.850Z,38.80
2019-05-25T07:41:19.283Z,38.94
2019-05-25T07:43:25.706Z,38.04
2019-05-25T07:45:32.223Z,37.99
2019-05-25T07:47:38.899Z,38.71
2019-05-25T07:49:45.328Z,38.78
2019-05-25T07:51:51.746Z,39.08
2019-05-25T07:53:58.148Z,39.42
2019-05-25T07:56:04.507Z,39.79
2019-05-25T07:58:17.163Z,39.20
2019-05-25T08:00:20.756Z,39.41
2019-05-25T08:02:27.169Z,39.16
2019-05-25T08:04:33.656Z,38.12
2019-05-25T08:06:40.076Z,38.31
2019-05-25T08:08:46.693Z,36.41
2019-05-25T08:10:53.794Z,33.93
2019-05-25T08:13:00.332Z,31.64
2019-05-25T08:15:09.158Z,30.28
2019-05-25T08:17:15.518Z,29.38
2019-05-25T08:19:23.500Z,28.84
2019-05-25T08:21:29.963Z,28.41
2019-05-25T08:23:36.370Z,27.93
2019-05-25T08:25:42.855Z,27.60
2019-05-25T08:27:49.626Z,27.91
2019-05-25T08:29:56.125Z,27.65
2019-05-25T08:32:02.585Z,28.14
2019-05-25T08:34:09.154Z,28.88
2019-05-25T08:36:17.246Z,29.49
2019-05-25T08:38:23.929Z,28.85
2019-05-25T08:40:30.370Z,28.05
2019-05-25T08:42:36.822Z,27.46
2019-05-25T08:44:43.296Z,26.99
2019-05-25T08:46:49.717Z,26.69
2019-05-25T08:48:56.080Z,26.25
2019-05-25T08:51:02.511Z,26.05
2019-05-25T08:53:10.101Z,25.50
2019-05-25T08:55:16.983Z,25.20
2019-05-25T08:57:23.357Z,25.02
2019-05-25T08:59:29.825Z,24.98
2019-05-25T09:01:36.264Z,24.97
2019-05-25T09:03:44.277Z,24.92
2019-05-25T09:05:50.754Z,24.70
2019-05-25T09:07:57.175Z,24.71
2019-05-25T09:10:04.934Z,24.66
2019-05-25T09:12:11.385Z,24.71
2019-05-25T09:14:18.096Z,24.77
2019-05-25T09:16:24.715Z,24.65
2019-05-25T09:18:32.742Z,24.55
2019-05-25T09:20:39.216Z,24.54
2019-05-25T09:22:45.772Z,24.59
2019-05-25T09:24:53.381Z,24.70
2019-05-25T09:27:02.630Z,24.28
2019-05-25T09:29:10.986Z,24.40
2019-05-25T09:31:18.598Z,24.37
2019-05-25T09:33:25.016Z,24.47
2019-05-25T09:35:31.521Z,24.42
2019-05-25T09:37:37.989Z,24.39
2019-05-25T09:39:44.467Z,24.52
2019-05-25T09:41:52.999Z,24.62
2019-05-25T09:43:59.497Z,24.68
2019-05-25T09:46:06.111Z,24.54
2019-05-25T09:48:13.965Z,24.44
2019-05-25T09:50:22.643Z,24.40
2019-05-25T09:52:28.348Z,24.47
2019-05-25T09:54:34.823Z,24.46
2019-05-25T09:56:43.067Z,24.49
2019-05-25T09:58:49.472Z,24.35
2019-05-25T10:00:56.129Z,24.38
2019-05-25T10:03:02.921Z,24.41
2019-05-25T10:05:11.726Z,24.51
2019-05-25T10:07:19.501Z,24.62
2019-05-25T10:09:27.055Z,24.63
2019-05-25T10:11:35.407Z,24.77
2019-05-25T10:13:41.860Z,24.46
2019-05-25T10:15:52.027Z,24.39
2019-05-25T10:17:58.614Z,24.29
2019-05-25T10:20:08.258Z,24.19
2019-05-25T10:22:16.229Z,24.24
2019-05-25T10:24:22.967Z,24.14
2019-05-25T10:26:33.274Z,24.05
2019-05-25T10:28:39.768Z,24.26
2019-05-25T10:30:46.172Z,24.43
2019-05-25T10:32:52.611Z,24.58
2019-05-25T10:35:00.526Z,24.69
2019-05-25T10:37:08.948Z,24.70
2019-05-25T10:39:15.364Z,24.64
2019-05-25T10:41:21.768Z,24.83
2019-05-25T10:43:29.459Z,24.88
2019-05-25T10:45:36.004Z,24.95
2019-05-25T10:47:42.633Z,25.00
2019-05-25T10:49:50.074Z,24.93
2019-05-25T10:51:56.935Z,25.14
2019-05-25T10:54:03.331Z,24.94
2019-05-25T10:56:09.707Z,25.13
2019-05-25T10:58:16.210Z,25.44
2019-05-25T11:00:24.251Z,25.62
2019-05-25T11:02:30.736Z,25.61
2019-05-25T11:04:37.350Z,25.50
2019-05-25T11:06:43.869Z,25.21
2019-05-25T11:08:50.305Z,25.03
2019-05-25T11:10:56.745Z,25.05
2019-05-25T11:13:03.401Z,25.30
2019-05-25T11:15:10.690Z,25.49
2019-05-25T11:17:17.288Z,25.64
2019-05-25T11:19:24.512Z,25.66
2019-05-25T11:21:31.131Z,25.45
2019-05-25T11:23:37.526Z,25.65
2019-05-25T11:25:43.968Z,25.53
2019-05-25T11:27:51.450Z,25.55
2019-05-25T11:30:08.473Z,25.41
2019-05-25T11:32:08.973Z,25.29
2019-05-25T11:34:15.239Z,25.53
2019-05-25T11:36:21.647Z,25.64
2019-05-25T11:38:28.206Z,25.70
2019-05-25T11:40:34.814Z,25.77
2019-05-25T11:42:41.719Z,25.71
2019-05-25T11:44:48.212Z,25.80
2019-05-25T11:46:54.726Z,25.92
2019-05-25T11:49:01.201Z,26.01
2019-05-25T11:51:07.726Z,25.86
2019-05-25T11:53:14.238Z,25.90
2019-05-25T11:55:23.845Z,25.73
2019-05-25T11:57:30.297Z,25.75
2019-05-25T11:59:37.764Z,25.66
2019-05-25T12:01:44.284Z,25.65
2019-05-25T12:03:50.667Z,25.68
2019-05-25T12:05:57.113Z,25.70
2019-05-25T12:08:03.567Z,25.76
2019-05-25T12:10:11.261Z,25.76
2019-05-25T12:12:17.863Z,25.73
2019-05-25T12:14:24.282Z,25.81
2019-05-25T12:16:30.712Z,25.90
2019-05-25T12:18:37.309Z,26.05
2019-05-25T12:20:43.756Z,26.27
2019-05-25T12:22:50.476Z,26.12
2019-05-25T12:24:57.163Z,25.96
2019-05-25T12:27:03.711Z,25.85
2019-05-25T12:29:10.194Z,25.75
2019-05-25T12:31:17.727Z,25.78
2019-05-25T12:33:24.171Z,25.83
2019-05-25T12:35:30.614Z,25.96
2019-05-25T12:37:37.143Z,25.94
2019-05-25T12:39:43.691Z,25.91
2019-05-25T12:41:50.106Z,25.85
2019-05-25T12:43:56.613Z,25.85
2019-05-25T12:46:03.030Z,25.94
2019-05-25T12:48:09.390Z,25.81
2019-05-25T12:50:17.963Z,25.69
2019-05-25T12:52:24.492Z,25.63
2019-05-25T12:54:31.359Z,25.51
2019-05-25T12:56:37.932Z,25.43
2019-05-25T12:58:44.304Z,25.61
2019-05-25T13:00:56.109Z,25.73
2019-05-25T13:02:58.954Z,25.84
2019-05-25T13:05:07.651Z,25.71
2019-05-25T13:07:14.092Z,25.83
2019-05-25T13:09:20.536Z,26.06
2019-05-25T13:11:27.091Z,26.08
2019-05-25T13:13:33.556Z,26.05
2019-05-25T13:15:39.910Z,26.19
2019-05-25T13:17:46.410Z,26.33
2019-05-25T13:19:52.861Z,26.25
2019-05-25T13:21:59.350Z,25.97
2019-05-25T13:24:06.759Z,26.09
2019-05-25T13:26:13.139Z,25.97
2019-05-25T13:28:19.571Z,26.15
2019-05-25T13:30:25.998Z,26.25
2019-05-25T13:32:32.502Z,26.11
2019-05-25T13:34:38.917Z,26.30
2019-05-25T13:36:45.794Z,26.35
2019-05-25T13:38:52.292Z,26.21
2019-05-25T13:40:58.727Z,26.04
2019-05-25T13:43:05.204Z,25.75
2019-05-25T13:45:11.781Z,25.52
2019-05-25T13:47:18.250Z,25.38
2019-05-25T13:49:24.674Z,25.26
2019-05-25T13:51:31.079Z,24.98
2019-05-25T13:53:37.513Z,25.04
2019-05-25T13:55:43.926Z,25.02
2019-05-25T13:57:51.338Z,25.07
2019-05-25T13:59:57.719Z,25.09
2019-05-25T14:02:04.269Z,25.00
2019-05-25T14:04:10.788Z,24.64
2019-05-25T14:06:17.170Z,24.54
2019-05-25T14:08:23.601Z,24.74
2019-05-25T14:10:30.029Z,24.81
2019-05-25T14:12:36.428Z,25.00
2019-05-25T14:14:42.924Z,25.27
2019-05-25T14:16:49.293Z,25.37
2019-05-25T14:18:55.704Z,25.37
2019-05-25T14:21:02.186Z,25.18
2019-05-25T14:23:08.664Z,25.07
2019-05-25T14:25:15.271Z,25.01
2019-05-25T14:27:22.039Z,25.04
2019-05-25T14:29:28.466Z,25.05
2019-05-25T14:31:44.952Z,25.19
2019-05-25T14:33:43.090Z,25.17
2019-05-25T14:35:49.491Z,25.01
2019-05-25T14:37:57.372Z,24.92
2019-05-25T14:40:05.685Z,25.05
2019-05-25T14:42:12.077Z,25.22
2019-05-25T14:44:18.500Z,25.50
2019-05-25T14:46:27.801Z,25.61
2019-05-25T14:48:33.058Z,25.75
2019-05-25T14:50:42.441Z,25.67
2019-05-25T14:52:48.891Z,24.99
2019-05-25T14:54:55.269Z,24.83
2019-05-25T14:57:03.441Z,24.67
2019-05-25T14:59:10.001Z,24.69
2019-05-25T15:01:16.561Z,24.75
2019-05-25T15:03:24.612Z,24.86
2019-05-25T15:05:31.153Z,24.86
2019-05-25T15:07:37.657Z,24.90
2019-05-25T15:09:44.119Z,24.92
2019-05-25T15:11:53.807Z,24.89
2019-05-25T15:13:58.773Z,24.83
2019-05-25T15:16:05.381Z,24.69
2019-05-25T15:18:11.801Z,24.79
2019-05-25T15:20:19.800Z,24.69
2019-05-25T15:22:26.169Z,24.82
2019-05-25T15:24:32.555Z,24.85
2019-05-25T15:26:38.988Z,24.78
2019-05-25T15:28:45.590Z,24.55
2019-05-25T15:30:52.048Z,24.43
2019-05-25T15:32:58.445Z,24.46
2019-05-25T15:35:08.671Z,24.43
2019-05-25T15:37:15.040Z,24.43
2019-05-25T15:39:21.418Z,24.38
2019-05-25T15:41:27.892Z,24.23
2019-05-25T15:43:34.394Z,24.29
2019-05-25T15:45:40.945Z,24.30
2019-05-25T15:47:47.335Z,24.28
2019-05-25T15:49:54.812Z,24.06
2019-05-25T15:52:01.261Z,24.00
2019-05-25T15:54:10.624Z,23.96
2019-05-25T15:56:16.115Z,23.89
2019-05-25T15:58:22.630Z,23.70
2019-05-25T16:00:52.007Z,23.42
2019-05-25T16:02:58.442Z,23.29
2019-05-25T16:05:07.569Z,23.33
2019-05-25T16:07:15.166Z,23.37
2019-05-25T16:09:21.714Z,23.32
2019-05-25T16:11:31.983Z,23.24
2019-05-25T16:13:37.186Z,23.14
2019-05-25T16:15:43.700Z,23.07
2019-05-25T16:17:50.355Z,22.86
2019-05-25T16:19:56.711Z,22.91
2019-05-25T16:22:03.229Z,22.89
2019-05-25T16:24:09.727Z,22.93
2019-05-25T16:26:16.148Z,22.97
2019-05-25T16:28:22.742Z,22.87
2019-05-25T16:30:31.362Z,22.74
2019-05-25T16:33:09.919Z,22.67
2019-05-25T16:34:45.470Z,22.60
2019-05-25T16:37:04.450Z,22.47
2019-05-25T16:39:10.913Z,22.41
2019-05-25T16:41:17.423Z,22.35
2019-05-25T16:43:23.917Z,22.29
2019-05-25T16:45:30.595Z,22.13
2019-05-25T16:47:37.388Z,22.08
2019-05-25T16:49:43.758Z,21.98
2019-05-25T16:51:50.138Z,21.93
2019-05-25T16:53:56.580Z,21.88
2019-05-25T16:56:03.013Z,21.79
2019-05-25T16:58:09.434Z,21.72
2019-05-25T17:00:26.743Z,21.63
2019-05-25T17:02:33.104Z,21.60
2019-05-25T17:04:40.918Z,21.50
2019-05-25T17:06:47.305Z,21.35
2019-05-25T17:08:56.181Z,21.32
2019-05-25T17:11:01.973Z,21.29
2019-05-25T17:13:08.430Z,21.23
2019-05-25T17:15:14.841Z,21.19
2019-05-25T17:17:21.237Z,21.04
2019-05-25T17:19:27.613Z,20.97
2019-05-25T17:21:33.991Z,20.85
2019-05-25T17:23:40.431Z,20.77
2019-05-25T17:25:46.873Z,20.71
2019-05-25T17:27:53.303Z,20.60
2019-05-25T17:29:59.808Z,20.51
2019-05-25T17:32:07.025Z,20.35
2019-05-25T17:34:13.848Z,20.28
2019-05-25T17:36:20.213Z,20.24
2019-05-25T17:38:26.733Z,20.15
2019-05-25T17:40:33.323Z,20.07
2019-05-25T17:42:39.757Z,20.00
2019-05-25T17:44:46.167Z,19.95
2019-05-25T17:46:52.644Z,19.86
2019-05-25T17:48:59.079Z,19.77
2019-05-25T17:51:06.898Z,19.70
2019-05-25T17:53:13.426Z,19.62
2019-05-25T17:55:24.037Z,19.57
2019-05-25T17:57:30.530Z,19.50
2019-05-25T17:59:36.974Z,19.44
2019-05-25T18:01:43.405Z,19.37
2019-05-25T18:04:05.635Z,19.31
2019-05-25T18:05:58.202Z,19.22
2019-05-25T18:08:05.939Z,19.11
2019-05-25T18:10:12.920Z,19.00
2019-05-25T18:12:19.268Z,18.92
2019-05-25T18:14:25.696Z,18.81
2019-05-25T18:16:32.119Z,18.71
2019-05-25T18:18:38.576Z,18.65
2019-05-25T18:20:45.059Z,18.57
2019-05-25T18:22:51.675Z,18.50
2019-05-25T18:24:58.039Z,18.43
2019-05-25T18:27:04.737Z,18.34
2019-05-25T18:29:11.243Z,18.27
2019-05-25T18:31:17.724Z,18.16
2019-05-25T18:33:24.234Z,18.08
2019-05-25T18:35:30.862Z,18.01
2019-05-25T18:37:37.360Z,17.94
2019-05-25T18:39:43.775Z,17.92
2019-05-25T18:41:50.281Z,17.92
2019-05-25T18:43:56.660Z,17.89
2019-05-25T18:46:05.271Z,17.85
2019-05-25T18:48:11.658Z,17.81
2019-05-25T18:50:18.888Z,17.79
2019-05-25T18:52:25.286Z,17.79
2019-05-25T18:54:31.814Z,17.83
2019-05-25T18:56:38.226Z,17.85
2019-05-25T18:58:44.658Z,17.85
2019-05-25T19:00:51.181Z,17.83
2019-05-25T19:02:57.597Z,17.78
2019-05-25T19:05:05.163Z,17.72
2019-05-25T19:07:11.675Z,17.63
2019-05-25T19:09:18.060Z,17.54
2019-05-25T19:11:24.666Z,17.47
2019-05-25T19:13:31.164Z,17.42
2019-05-25T19:15:37.976Z,17.38
2019-05-25T19:17:44.455Z,17.35
2019-05-25T19:19:50.881Z,17.31
2019-05-25T19:21:57.374Z,17.29
2019-05-25T19:24:03.765Z,17.27
2019-05-25T19:26:10.298Z,17.21
2019-05-25T19:28:16.748Z,17.14
2019-05-25T19:30:24.198Z,17.10
2019-05-25T19:32:32.020Z,17.05
2019-05-25T19:34:38.484Z,17.02
2019-05-25T19:36:44.882Z,16.96
2019-05-25T19:38:51.288Z,16.90
2019-05-25T19:40:57.774Z,16.84
2019-05-25T19:43:04.490Z,16.73
2019-05-25T19:45:13.197Z,16.66
2019-05-25T19:47:19.653Z,16.59
2019-05-25T19:49:26.140Z,16.51
2019-05-25T19:51:32.564Z,16.41
2019-05-25T19:53:39.074Z,16.34
2019-05-25T19:55:45.514Z,16.27
2019-05-25T19:57:51.945Z,16.18
2019-05-25T19:59:59.547Z,16.11
2019-05-25T20:02:06.149Z,16.03
2019-05-25T20:04:12.566Z,15.94
2019-05-25T20:06:18.972Z,15.86
2019-05-25T20:08:25.364Z,15.80
2019-05-25T20:10:32.492Z,15.72
2019-05-25T20:12:38.904Z,15.66
2019-05-25T20:14:45.387Z,15.60
2019-05-25T20:16:51.836Z,15.53
2019-05-25T20:18:58.287Z,15.50
2019-05-25T20:21:04.735Z,15.44
2019-05-25T20:23:12.239Z,15.37
2019-05-25T20:25:18.918Z,15.30
2019-05-25T20:27:25.355Z,15.26
2019-05-25T20:29:31.860Z,15.20
2019-05-25T20:31:38.344Z,15.14
2019-05-25T20:33:44.791Z,15.10
2019-05-25T20:35:51.187Z,15.03
2019-05-25T20:37:57.610Z,14.98
2019-05-25T20:40:05.745Z,14.95
2019-05-25T20:42:14.987Z,14.90
2019-05-25T20:44:20.519Z,14.87
2019-05-25T20:46:27.020Z,14.84
2019-05-25T20:48:33.472Z,14.81
2019-05-25T20:50:39.944Z,14.76
2019-05-25T20:52:46.435Z,14.73
2019-05-25T20:54:52.842Z,14.69
2019-05-25T20:56:59.233Z,14.64
2019-05-25T20:59:06.178Z,14.61
2019-05-25T21:01:12.729Z,14.58
2019-05-25T21:03:19.348Z,14.55
2019-05-25T21:05:25.803Z,14.50
2019-05-25T21:07:32.365Z,14.42
2019-05-25T21:09:38.768Z,14.38
2019-05-25T21:11:45.199Z,14.30
2019-05-25T21:13:51.676Z,14.25
2019-05-25T21:15:58.101Z,14.21
2019-05-25T21:18:04.695Z,14.14
2019-05-25T21:20:14.792Z,14.10
2019-05-25T21:22:21.199Z,14.06
2019-05-25T21:24:27.665Z,14.02
2019-05-25T21:26:34.370Z,13.99
2019-05-25T21:28:40.785Z,13.96
2019-05-25T21:30:47.707Z,13.91
2019-05-25T21:32:54.128Z,13.85
2019-05-25T21:35:00.512Z,13.84
2019-05-25T21:37:06.891Z,13.83
2019-05-25T21:39:14.155Z,13.80
2019-05-25T21:41:21.082Z,13.75
2019-05-25T21:43:27.513Z,13.70
2019-05-25T21:45:33.996Z,13.66
2019-05-25T21:47:40.366Z,13.59
2019-05-25T21:49:46.863Z,13.53
2019-05-25T21:51:53.641Z,13.47
2019-05-25T21:54:00.056Z,13.43
2019-05-25T21:56:08.327Z,13.40
2019-05-25T21:58:14.739Z,13.36
2019-05-25T22:00:23.390Z,13.34
2019-05-25T22:03:09.606Z,13.30
2019-05-25T22:05:16.434Z,13.27
2019-05-25T22:07:23.128Z,13.22
2019-05-25T22:09:29.804Z,13.19
2019-05-25T22:11:36.762Z,13.16
2019-05-25T22:13:43.492Z,13.14
2019-05-25T22:15:50.242Z,13.12
2019-05-25T22:17:56.938Z,13.09
2019-05-25T22:20:04.766Z,13.07
2019-05-25T22:22:11.420Z,13.04
2019-05-25T22:24:18.075Z,13.01
2019-05-25T22:26:24.831Z,12.96
2019-05-25T22:28:44.213Z,12.92
2019-05-25T22:30:41.016Z,12.85
2019-05-25T22:32:47.710Z,12.83
2019-05-25T22:34:54.439Z,12.81
2019-05-25T22:37:01.346Z,12.78
2019-05-25T22:39:10.887Z,12.74
2019-05-25T22:41:19.936Z,12.68
2019-05-25T22:43:26.977Z,12.62
2019-05-25T22:45:33.842Z,12.56
2019-05-25T22:47:40.605Z,12.51
2019-05-25T22:49:47.280Z,12.47
2019-05-25T22:51:53.940Z,12.45
2019-05-25T22:54:00.584Z,12.41
2019-05-25T22:56:07.350Z,12.38
2019-05-25T22:58:14.019Z,12.36
2019-05-25T23:00:20.818Z,12.36
2019-05-25T23:02:27.191Z,12.33
2019-05-25T23:05:07.245Z,12.33
2019-05-25T23:07:14.407Z,12.30
2019-05-25T23:09:20.866Z,12.30
2019-05-25T23:11:27.311Z,12.27
2019-05-25T23:13:33.814Z,12.25
2019-05-25T23:15:40.253Z,12.22
2019-05-25T23:17:46.653Z,12.19
2019-05-25T23:19:53.097Z,12.19
2019-05-25T23:22:00.229Z,12.17
2019-05-25T23:24:06.804Z,12.14
2019-05-25T23:26:13.293Z,12.05
2019-05-25T23:28:19.765Z,11.98
2019-05-25T23:30:27.857Z,11.90
2019-05-25T23:32:34.565Z,11.86
2019-05-25T23:34:40.980Z,11.78
2019-05-25T23:36:47.529Z,11.71
2019-05-25T23:38:53.941Z,11.66
2019-05-25T23:41:00.318Z,11.62
2019-05-25T23:43:08.026Z,11.59
2019-05-25T23:45:16.864Z,11.59
2019-05-25T23:47:23.338Z,11.58
2019-05-25T23:49:29.731Z,11.53
2019-05-25T23:51:37.447Z,11.47
2019-05-25T23:53:43.836Z,11.40
2019-05-25T23:55:50.286Z,11.36
2019-05-25T23:57:56.785Z,11.32
